sensor_id;sensor_type;location;lat;lon;timestamp;pressure;altitude;pressure_sealevel;temperature;humidity
65157;BME280;52745;49.794;18.258;2023-02-17T00:01:24;-15929.69;;;-0.29;100.00
65157;BME280;52745;49.794;18.258;2023-02-17T00:03:52;-15927.78;;;-0.36;100.00
65157;BME280;52745;49.794;18.258;2023-02-17T00:06:21;-15926.53;;;-0.40;100.00
65157;BME280;52745;49.794;18.258;2023-02-17T00:08:48;-15926.69;;;-0.40;100.00
65157;BME280;52745;49.794;18.258;2023-02-17T00:11:16;-15926.28;;;-0.42;100.00
65157;BME280;52745;49.794;18.258;2023-02-17T00:13:43;-15927.38;;;-0.37;100.00
65157;BME280;52745;49.794;18.258;2023-02-17T00:16:14;-15926.81;;;-0.39;100.00
65157;BME280;52745;49.794;18.258;2023-02-17T00:18:41;-15926.97;;;-0.39;100.00
65157;BME280;52745;49.794;18.258;2023-02-17T00:21:17;-15928.59;;;-0.33;100.00
65157;BME280;52745;49.794;18.258;2023-02-17T00:23:45;-15930.25;;;-0.27;100.00
65157;BME280;52745;49.794;18.258;2023-02-17T00:26:13;-15929.69;;;-0.29;100.00
65157;BME280;52745;49.794;18.258;2023-02-17T00:28:42;-15930.13;;;-0.27;100.00
65157;BME280;52745;49.794;18.258;2023-02-17T00:31:12;-15931.75;;;-0.21;100.00
65157;BME280;52745;49.794;18.258;2023-02-17T00:33:40;-15930.66;;;-0.25;100.00
65157;BME280;52745;49.794;18.258;2023-02-17T00:36:10;-15931.91;;;-0.21;100.00
65157;BME280;52745;49.794;18.258;2023-02-17T00:38:39;-15931.63;;;-0.22;100.00
65157;BME280;52745;49.794;18.258;2023-02-17T00:41:05;-15932.84;;;-0.17;100.00
65157;BME280;52745;49.794;18.258;2023-02-17T00:43:32;-15934.91;;;-0.09;100.00
65157;BME280;52745;49.794;18.258;2023-02-17T00:45:59;-15934.09;;;-0.12;100.00
65157;BME280;52745;49.794;18.258;2023-02-17T00:48:30;-15936.28;;;-0.04;100.00
65157;BME280;52745;49.794;18.258;2023-02-17T00:50:57;-15936.56;;;-0.03;100.00
65157;BME280;52745;49.794;18.258;2023-02-17T00:53:24;-15938.63;;;0.05;100.00
65157;BME280;52745;49.794;18.258;2023-02-17T00:55:51;-15939.56;;;0.08;100.00
65157;BME280;52745;49.794;18.258;2023-02-17T00:58:18;-15940.66;;;0.12;100.00
65157;BME280;52745;49.794;18.258;2023-02-17T01:00:44;-15941.50;;;0.15;100.00
65157;BME280;52745;49.794;18.258;2023-02-17T01:03:12;-15944.22;;;0.26;100.00
65157;BME280;52745;49.794;18.258;2023-02-17T01:05:40;-15945.59;;;0.31;100.00
65157;BME280;52745;49.794;18.258;2023-02-17T01:08:08;-15946.16;;;0.33;100.00
65157;BME280;52745;49.794;18.258;2023-02-17T01:10:38;-15945.59;;;0.31;100.00
65157;BME280;52745;49.794;18.258;2023-02-17T01:13:07;-15946.44;;;0.34;100.00
65157;BME280;52745;49.794;18.258;2023-02-17T01:15:43;-15947.53;;;0.38;100.00
65157;BME280;52745;49.794;18.258;2023-02-17T01:18:13;-15946.00;;;0.32;100.00
65157;BME280;52745;49.794;18.258;2023-02-17T01:20:40;-15942.72;;;0.20;100.00
65157;BME280;52745;49.794;18.258;2023-02-17T01:23:09;-15941.75;;;0.16;100.00
65157;BME280;52745;49.794;18.258;2023-02-17T01:25:40;-15940.94;;;0.13;100.00
65157;BME280;52745;49.794;18.258;2023-02-17T01:28:10;-15939.03;;;0.06;100.00
65157;BME280;52745;49.794;18.258;2023-02-17T01:30:39;-15938.47;;;0.04;100.00
65157;BME280;52745;49.794;18.258;2023-02-17T01:33:06;-15939.28;;;0.07;100.00
65157;BME280;52745;49.794;18.258;2023-02-17T01:35:33;-15939.56;;;0.08;100.00
65157;BME280;52745;49.794;18.258;2023-02-17T01:38:00;-15939.03;;;0.06;100.00
65157;BME280;52745;49.794;18.258;2023-02-17T01:40:27;-15940.41;;;0.11;100.00
65157;BME280;52745;49.794;18.258;2023-02-17T01:42:54;-15940.66;;;0.12;100.00
65157;BME280;52745;49.794;18.258;2023-02-17T01:50:25;-15943.97;;;0.25;100.00
65157;BME280;52745;49.794;18.258;2023-02-17T01:52:56;-15944.91;;;0.28;100.00
65157;BME280;52745;49.794;18.258;2023-02-17T01:55:24;-15945.31;;;0.30;100.00
65157;BME280;52745;49.794;18.258;2023-02-17T01:57:54;-15944.78;;;0.28;100.00
65157;BME280;52745;49.794;18.258;2023-02-17T02:00:23;-15944.78;;;0.28;100.00
65157;BME280;52745;49.794;18.258;2023-02-17T02:02:53;-15943.53;;;0.23;100.00
65157;BME280;52745;49.794;18.258;2023-02-17T02:05:20;-15945.19;;;0.29;100.00
65157;BME280;52745;49.794;18.258;2023-02-17T02:07:48;-15946.44;;;0.34;100.00
65157;BME280;52745;49.794;18.258;2023-02-17T02:10:17;-15946.84;;;0.35;99.65
65157;BME280;52745;49.794;18.258;2023-02-17T02:12:44;-15947.66;;;0.38;99.65
65157;BME280;52745;49.794;18.258;2023-02-17T02:15:16;-15948.63;;;0.42;99.13
65157;BME280;52745;49.794;18.258;2023-02-17T02:23:35;-15950.53;;;0.49;98.26
65157;BME280;52745;49.794;18.258;2023-02-17T02:29:11;-15953.28;;;0.59;98.34
65157;BME280;52745;49.794;18.258;2023-02-17T02:34:42;-15958.34;;;0.78;97.34
65157;BME280;52745;49.794;18.258;2023-02-17T02:37:17;-15958.91;;;0.80;96.80
65157;BME280;52745;49.794;18.258;2023-02-17T02:39:48;-15958.63;;;0.79;96.93
65157;BME280;52745;49.794;18.258;2023-02-17T02:42:19;-15960.69;;;0.87;96.51
65157;BME280;52745;49.794;18.258;2023-02-17T02:44:47;-15960.94;;;0.88;96.40
65157;BME280;52745;49.794;18.258;2023-02-17T02:50:00;-15959.84;;;0.84;95.65
65157;BME280;52745;49.794;18.258;2023-02-17T02:58:04;-15953.00;;;0.58;96.67
65157;BME280;52745;49.794;18.258;2023-02-17T03:00:53;-15948.75;;;0.43;97.63
65157;BME280;52745;49.794;18.258;2023-02-17T03:09:01;-15952.44;;;0.56;97.28
65157;BME280;52745;49.794;18.258;2023-02-17T03:11:30;-15953.28;;;0.59;97.38
65157;BME280;52745;49.794;18.258;2023-02-17T03:14:07;-15951.78;;;0.54;97.83
65157;BME280;52745;49.794;18.258;2023-02-17T03:16:36;-15952.19;;;0.55;97.35
65157;BME280;52745;49.794;18.258;2023-02-17T03:19:04;-15952.44;;;0.56;97.55
65157;BME280;52745;49.794;18.258;2023-02-17T03:21:38;-15953.13;;;0.59;97.56
65157;BME280;52745;49.794;18.258;2023-02-17T03:24:05;-15953.81;;;0.61;97.22
65157;BME280;52745;49.794;18.258;2023-02-17T03:26:32;-15954.66;;;0.65;97.21
65157;BME280;52745;49.794;18.258;2023-02-17T03:28:59;-15955.06;;;0.66;97.18
65157;BME280;52745;49.794;18.258;2023-02-17T03:31:26;-15955.47;;;0.68;97.26
65157;BME280;52745;49.794;18.258;2023-02-17T03:33:53;-15957.78;;;0.76;96.80
65157;BME280;52745;49.794;18.258;2023-02-17T03:36:20;-15959.31;;;0.82;96.70
65157;BME280;52745;49.794;18.258;2023-02-17T03:38:46;-15959.16;;;0.81;96.69
65157;BME280;52745;49.794;18.258;2023-02-17T03:41:13;-15958.91;;;0.80;97.10
65157;BME280;52745;49.794;18.258;2023-02-17T03:43:40;-15958.63;;;0.79;96.83
65157;BME280;52745;49.794;18.258;2023-02-17T03:46:11;-15959.31;;;0.82;96.85
65157;BME280;52745;49.794;18.258;2023-02-17T03:48:38;-15958.47;;;0.79;96.57
65157;BME280;52745;49.794;18.258;2023-02-17T03:51:13;-15958.91;;;0.80;96.55
65157;BME280;52745;49.794;18.258;2023-02-17T03:53:41;-15959.44;;;0.82;96.56
65157;BME280;52745;49.794;18.258;2023-02-17T03:56:09;-15963.13;;;0.96;96.35
65157;BME280;52745;49.794;18.258;2023-02-17T03:58:36;-15962.03;;;0.92;96.87
65157;BME280;52745;49.794;18.258;2023-02-17T04:01:04;-15964.50;;;1.01;97.01
65157;BME280;52745;49.794;18.258;2023-02-17T04:03:32;-15965.88;;;1.07;96.87
65157;BME280;52745;49.794;18.258;2023-02-17T04:05:59;-15967.94;;;1.14;97.30
65157;BME280;52745;49.794;18.258;2023-02-17T04:08:26;-15970.25;;;1.23;97.20
65157;BME280;52745;49.794;18.258;2023-02-17T04:10:55;-15971.09;;;1.26;97.17
65157;BME280;52745;49.794;18.258;2023-02-17T04:13:22;-15974.66;;;1.39;96.15
65157;BME280;52745;49.794;18.258;2023-02-17T04:15:50;-15974.78;;;1.40;95.94
65157;BME280;52745;49.794;18.258;2023-02-17T04:18:17;-15975.34;;;1.42;95.94
65157;BME280;52745;49.794;18.258;2023-02-17T04:20:47;-15976.69;;;1.47;95.66
65157;BME280;52745;49.794;18.258;2023-02-17T04:23:15;-15979.44;;;1.57;95.06
65157;BME280;52745;49.794;18.258;2023-02-17T04:25:42;-15976.84;;;1.48;95.52
65157;BME280;52745;49.794;18.258;2023-02-17T04:28:10;-15973.41;;;1.35;95.49
65157;BME280;52745;49.794;18.258;2023-02-17T04:30:37;-15973.13;;;1.34;95.47
65157;BME280;52745;49.794;18.258;2023-02-17T04:33:04;-15970.81;;;1.25;96.26
65157;BME280;52745;49.794;18.258;2023-02-17T04:35:31;-15969.16;;;1.19;95.57
65157;BME280;52745;49.794;18.258;2023-02-17T04:37:58;-15965.59;;;1.06;96.02
65157;BME280;52745;49.794;18.258;2023-02-17T04:40:25;-15963.13;;;0.96;96.67
65157;BME280;52745;49.794;18.258;2023-02-17T04:42:52;-15963.00;;;0.96;97.06
65157;BME280;52745;49.794;18.258;2023-02-17T04:45:19;-15962.72;;;0.95;97.00
65157;BME280;52745;49.794;18.258;2023-02-17T04:47:46;-15963.13;;;0.96;96.58
65157;BME280;52745;49.794;18.258;2023-02-17T04:50:14;-15964.22;;;1.00;96.61
65157;BME280;52745;49.794;18.258;2023-02-17T04:52:41;-15963.28;;;0.97;96.50
65157;BME280;52745;49.794;18.258;2023-02-17T04:55:08;-15963.69;;;0.98;96.45
65157;BME280;52745;49.794;18.258;2023-02-17T04:57:35;-15965.34;;;1.05;96.46
65157;BME280;52745;49.794;18.258;2023-02-17T05:00:04;-15966.28;;;1.08;96.08
65157;BME280;52745;49.794;18.258;2023-02-17T05:02:31;-15964.91;;;1.03;96.15
65157;BME280;52745;49.794;18.258;2023-02-17T05:04:58;-15966.44;;;1.09;96.17
65157;BME280;52745;49.794;18.258;2023-02-17T05:07:24;-15963.00;;;0.96;96.43
65157;BME280;52745;49.794;18.258;2023-02-17T05:09:51;-15962.03;;;0.92;96.76
65157;BME280;52745;49.794;18.258;2023-02-17T05:12:19;-15961.22;;;0.89;96.72
65157;BME280;52745;49.794;18.258;2023-02-17T05:14:46;-15962.19;;;0.93;97.19
65157;BME280;52745;49.794;18.258;2023-02-17T05:17:13;-15961.50;;;0.90;96.80
65157;BME280;52745;49.794;18.258;2023-02-17T05:19:40;-15962.59;;;0.94;96.56
65157;BME280;52745;49.794;18.258;2023-02-17T05:22:06;-15961.63;;;0.91;96.79
65157;BME280;52745;49.794;18.258;2023-02-17T05:24:33;-15963.81;;;0.99;96.81
65157;BME280;52745;49.794;18.258;2023-02-17T05:27:00;-15963.97;;;0.99;96.29
65157;BME280;52745;49.794;18.258;2023-02-17T05:29:27;-15963.41;;;0.97;96.58
65157;BME280;52745;49.794;18.258;2023-02-17T05:31:53;-15964.09;;;1.00;96.50
65157;BME280;52745;49.794;18.258;2023-02-17T05:34:20;-15961.09;;;0.89;97.06
65157;BME280;52745;49.794;18.258;2023-02-17T05:36:47;-15961.91;;;0.92;97.27
65157;BME280;52745;49.794;18.258;2023-02-17T05:39:14;-15963.13;;;0.96;97.30
65157;BME280;52745;49.794;18.258;2023-02-17T05:41:40;-15965.75;;;1.06;96.57
65157;BME280;52745;49.794;18.258;2023-02-17T05:44:07;-15967.25;;;1.12;96.35
65157;BME280;52745;49.794;18.258;2023-02-17T05:46:34;-15966.97;;;1.11;96.48
65157;BME280;52745;49.794;18.258;2023-02-17T05:49:01;-15968.63;;;1.17;96.63
65157;BME280;52745;49.794;18.258;2023-02-17T05:51:27;-15968.63;;;1.17;96.17
65157;BME280;52745;49.794;18.258;2023-02-17T05:53:54;-15968.34;;;1.16;96.50
65157;BME280;52745;49.794;18.258;2023-02-17T05:56:21;-15968.47;;;1.16;96.18
65157;BME280;52745;49.794;18.258;2023-02-17T05:58:48;-15968.63;;;1.17;96.38
65157;BME280;52745;49.794;18.258;2023-02-17T06:01:15;-15970.53;;;1.24;96.08
65157;BME280;52745;49.794;18.258;2023-02-17T06:03:42;-15971.34;;;1.27;96.01
65157;BME280;52745;49.794;18.258;2023-02-17T06:06:08;-15973.28;;;1.34;96.22
65157;BME280;52745;49.794;18.258;2023-02-17T06:08:36;-15975.47;;;1.42;95.47
65157;BME280;52745;49.794;18.258;2023-02-17T06:11:02;-15976.44;;;1.46;95.68
65157;BME280;52745;49.794;18.258;2023-02-17T06:13:29;-15978.47;;;1.54;94.87
65157;BME280;52745;49.794;18.258;2023-02-17T06:15:56;-15978.19;;;1.53;95.02
65157;BME280;52745;49.794;18.258;2023-02-17T06:18:23;-15981.22;;;1.64;94.75
65157;BME280;52745;49.794;18.258;2023-02-17T06:20:54;-15980.94;;;1.63;94.23
65157;BME280;52745;49.794;18.258;2023-02-17T06:23:22;-15983.28;;;1.72;94.48
65157;BME280;52745;49.794;18.258;2023-02-17T06:25:49;-15983.00;;;1.71;93.94
65157;BME280;52745;49.794;18.258;2023-02-17T06:28:16;-15985.34;;;1.79;93.71
65157;BME280;52745;49.794;18.258;2023-02-17T06:30:42;-15987.66;;;1.88;93.89
65157;BME280;52745;49.794;18.258;2023-02-17T06:33:09;-15987.53;;;1.88;93.27
65157;BME280;52745;49.794;18.258;2023-02-17T06:35:36;-15987.25;;;1.86;93.00
65157;BME280;52745;49.794;18.258;2023-02-17T06:38:04;-15985.59;;;1.80;93.94
65157;BME280;52745;49.794;18.258;2023-02-17T06:40:31;-15988.47;;;1.91;93.30
65157;BME280;52745;49.794;18.258;2023-02-17T06:42:58;-15988.19;;;1.90;93.37
65157;BME280;52745;49.794;18.258;2023-02-17T06:45:24;-15988.63;;;1.92;93.36
65157;BME280;52745;49.794;18.258;2023-02-17T06:47:51;-15991.50;;;2.02;92.81
65157;BME280;52745;49.794;18.258;2023-02-17T06:50:18;-15991.75;;;2.03;92.91
65157;BME280;52745;49.794;18.258;2023-02-17T06:52:45;-15993.13;;;2.09;92.95
65157;BME280;52745;49.794;18.258;2023-02-17T06:55:11;-16003.13;;;2.46;100.00
65157;BME280;52745;49.794;18.258;2023-02-17T06:57:38;-16009.56;;;2.70;98.96
65157;BME280;52745;49.794;18.258;2023-02-17T07:00:05;-16012.84;;;2.82;97.02
65157;BME280;52745;49.794;18.258;2023-02-17T07:02:32;-16013.66;;;2.85;93.12
65157;BME280;52745;49.794;18.258;2023-02-17T07:05:02;-16012.72;;;2.82;91.46
65157;BME280;52745;49.794;18.258;2023-02-17T07:07:29;-16016.81;;;2.97;92.63
65157;BME280;52745;49.794;18.258;2023-02-17T07:09:56;-16021.59;;;3.15;92.41
65157;BME280;52745;49.794;18.258;2023-02-17T07:12:23;-16020.09;;;3.09;91.48
65157;BME280;52745;49.794;18.258;2023-02-17T07:14:50;-16017.63;;;3.00;89.64
65157;BME280;52745;49.794;18.258;2023-02-17T07:17:16;-16012.84;;;2.82;89.47
65157;BME280;52745;49.794;18.258;2023-02-17T07:19:43;-16011.75;;;2.78;89.95
65157;BME280;52745;49.794;18.258;2023-02-17T07:22:10;-16011.47;;;2.77;90.06
65157;BME280;52745;49.794;18.258;2023-02-17T07:24:37;-16007.91;;;2.64;90.49
65157;BME280;52745;49.794;18.258;2023-02-17T07:27:05;-16009.69;;;2.71;90.51
65157;BME280;52745;49.794;18.258;2023-02-17T07:29:31;-16009.56;;;2.70;90.30
65157;BME280;52745;49.794;18.258;2023-02-17T07:31:58;-16010.09;;;2.72;90.34
65157;BME280;52745;49.794;18.258;2023-02-17T07:34:25;-16011.34;;;2.77;90.16
65157;BME280;52745;49.794;18.258;2023-02-17T07:36:52;-16012.72;;;2.82;89.63
65157;BME280;52745;49.794;18.258;2023-02-17T07:39:19;-16015.84;;;2.94;89.32
65157;BME280;52745;49.794;18.258;2023-02-17T07:41:46;-16019.69;;;3.08;88.51
65157;BME280;52745;49.794;18.258;2023-02-17T07:44:17;-16020.66;;;3.11;88.30
65157;BME280;52745;49.794;18.258;2023-02-17T07:46:44;-16021.75;;;3.16;88.37
65157;BME280;52745;49.794;18.258;2023-02-17T07:49:11;-16023.66;;;3.23;87.74
65157;BME280;52745;49.794;18.258;2023-02-17T07:51:39;-16025.31;;;3.29;87.54
65157;BME280;52745;49.794;18.258;2023-02-17T07:54:05;-16024.75;;;3.27;87.66
65157;BME280;52745;49.794;18.258;2023-02-17T07:56:32;-16026.53;;;3.34;87.21
65157;BME280;52745;49.794;18.258;2023-02-17T07:58:59;-16026.25;;;3.33;87.66
65157;BME280;52745;49.794;18.258;2023-02-17T08:01:26;-16028.31;;;3.40;87.59
65157;BME280;52745;49.794;18.258;2023-02-17T08:03:53;-16029.41;;;3.44;87.31
65157;BME280;52745;49.794;18.258;2023-02-17T08:06:23;-16025.31;;;3.29;87.51
65157;BME280;52745;49.794;18.258;2023-02-17T08:08:51;-16032.41;;;3.56;96.77
65157;BME280;52745;49.794;18.258;2023-02-17T08:11:38;-16030.38;;;3.48;94.18
65157;BME280;52745;49.794;18.258;2023-02-17T08:14:26;-16031.88;;;3.53;92.64
65157;BME280;52745;49.794;18.258;2023-02-17T08:16:54;-16031.59;;;3.52;92.29
65157;BME280;52745;49.794;18.258;2023-02-17T08:19:21;-16032.41;;;3.56;90.50
65157;BME280;52745;49.794;18.258;2023-02-17T08:21:48;-16036.13;;;3.69;93.14
65157;BME280;52745;49.794;18.258;2023-02-17T08:24:15;-16037.47;;;3.75;92.57
65157;BME280;52745;49.794;18.258;2023-02-17T08:26:42;-16032.69;;;3.57;91.82
65157;BME280;52745;49.794;18.258;2023-02-17T08:29:09;-16031.06;;;3.50;91.92
65157;BME280;52745;49.794;18.258;2023-02-17T08:31:36;-16025.03;;;3.28;92.07
65157;BME280;52745;49.794;18.258;2023-02-17T08:34:05;-16018.47;;;3.03;93.78
65157;BME280;52745;49.794;18.258;2023-02-17T08:36:33;-16019.00;;;3.05;94.38
65157;BME280;52745;49.794;18.258;2023-02-17T08:39:10;-16019.00;;;3.05;94.58
65157;BME280;52745;49.794;18.258;2023-02-17T08:41:37;-16017.50;;;3.00;94.61
65157;BME280;52745;49.794;18.258;2023-02-17T08:44:11;-16019.56;;;3.07;94.74
65157;BME280;52745;49.794;18.258;2023-02-17T08:46:38;-16020.25;;;3.10;94.38
65157;BME280;52745;49.794;18.258;2023-02-17T08:49:05;-16023.66;;;3.23;94.25
65157;BME280;52745;49.794;18.258;2023-02-17T08:51:33;-16024.47;;;3.26;93.53
65157;BME280;52745;49.794;18.258;2023-02-17T08:54:01;-16024.34;;;3.25;93.60
65157;BME280;52745;49.794;18.258;2023-02-17T08:56:29;-16024.63;;;3.26;92.86
65157;BME280;52745;49.794;18.258;2023-02-17T08:58:56;-16026.13;;;3.32;92.56
65157;BME280;52745;49.794;18.258;2023-02-17T09:01:23;-16027.63;;;3.38;92.94
65157;BME280;52745;49.794;18.258;2023-02-17T09:03:51;-16028.44;;;3.41;92.56
65157;BME280;52745;49.794;18.258;2023-02-17T09:06:19;-16032.97;;;3.58;92.89
65157;BME280;52745;49.794;18.258;2023-02-17T09:08:47;-16033.66;;;3.60;94.78
65157;BME280;52745;49.794;18.258;2023-02-17T09:11:14;-16040.34;;;3.85;95.32
65157;BME280;52745;49.794;18.258;2023-02-17T09:13:43;-16042.28;;;3.92;92.30
65157;BME280;52745;49.794;18.258;2023-02-17T09:16:10;-16049.94;;;4.21;93.61
65157;BME280;52745;49.794;18.258;2023-02-17T09:18:37;-16048.03;;;4.14;92.58
65157;BME280;52745;49.794;18.258;2023-02-17T09:21:10;-16043.63;;;3.98;91.11
65157;BME280;52745;49.794;18.258;2023-02-17T09:23:38;-16041.72;;;3.90;nan
65157;BME280;52745;49.794;18.258;2023-02-17T09:26:10;-16040.09;;;3.84;92.75
65157;BME280;52745;49.794;18.258;2023-02-17T09:28:38;-16040.09;;;3.84;93.07
65157;BME280;52745;49.794;18.258;2023-02-17T09:31:19;-16037.47;;;3.75;93.39
65157;BME280;52745;49.794;18.258;2023-02-17T09:33:47;-16038.84;;;3.80;92.44
65157;BME280;52745;49.794;18.258;2023-02-17T09:36:20;-16038.44;;;3.78;92.34
65157;BME280;52745;49.794;18.258;2023-02-17T09:38:48;-16039.00;;;3.80;92.39
65157;BME280;52745;49.794;18.258;2023-02-17T09:44:21;-16038.16;;;3.77;92.41
65157;BME280;52745;49.794;18.258;2023-02-17T09:47:02;-16036.25;;;3.70;92.29
65157;BME280;52745;49.794;18.258;2023-02-17T09:49:36;-16039.25;;;3.81;92.89
65157;BME280;52745;49.794;18.258;2023-02-17T09:52:11;-16039.25;;;3.81;91.68
65157;BME280;52745;49.794;18.258;2023-02-17T09:55:48;-16041.59;;;3.90;91.29
65157;BME280;52745;49.794;18.258;2023-02-17T09:57:59;-16044.59;;;4.01;90.69
65157;BME280;52745;49.794;18.258;2023-02-17T10:01:00;-16045.28;;;4.04;90.55
65157;BME280;52745;49.794;18.258;2023-02-17T10:03:36;-16046.94;;;4.10;90.09
65157;BME280;52745;49.794;18.258;2023-02-17T10:09:06;-16046.09;;;4.07;90.28
65157;BME280;52745;49.794;18.258;2023-02-17T10:11:41;-16045.69;;;4.05;90.97
65157;BME280;52745;49.794;18.258;2023-02-17T10:19:55;-16041.44;;;3.89;92.64
65157;BME280;52745;49.794;18.258;2023-02-17T10:22:26;-16045.41;;;4.04;92.95
65157;BME280;52745;49.794;18.258;2023-02-17T10:24:52;-16047.34;;;4.11;93.49
65157;BME280;52745;49.794;18.258;2023-02-17T10:27:45;-16049.09;;;4.18;93.38
65157;BME280;52745;49.794;18.258;2023-02-17T10:33:33;-16053.50;;;4.34;93.02
65157;BME280;52745;49.794;18.258;2023-02-17T10:39:02;-16047.59;;;4.12;92.80
65157;BME280;52745;49.794;18.258;2023-02-17T10:41:36;-16050.63;;;4.24;93.90
65157;BME280;52745;49.794;18.258;2023-02-17T10:44:12;-16051.84;;;4.28;94.19
65157;BME280;52745;49.794;18.258;2023-02-17T10:46:41;-16049.09;;;4.18;93.04
65157;BME280;52745;49.794;18.258;2023-02-17T10:49:17;-16048.84;;;4.17;93.64
65157;BME280;52745;49.794;18.258;2023-02-17T10:51:48;-16046.25;;;4.07;93.58
65157;BME280;52745;49.794;18.258;2023-02-17T10:54:39;-16046.94;;;4.10;93.44
65157;BME280;52745;49.794;18.258;2023-02-17T10:57:11;-16046.38;;;4.08;94.04
65157;BME280;52745;49.794;18.258;2023-02-17T10:59:40;-16045.41;;;4.04;93.05
65157;BME280;52745;49.794;18.258;2023-02-17T11:02:16;-16043.09;;;3.96;93.78
65157;BME280;52745;49.794;18.258;2023-02-17T11:04:48;-16043.22;;;3.96;93.45
65157;BME280;52745;49.794;18.258;2023-02-17T11:07:18;-16044.72;;;4.02;93.32
65157;BME280;52745;49.794;18.258;2023-02-17T11:09:54;-16048.28;;;4.15;93.52
65157;BME280;52745;49.794;18.258;2023-02-17T11:12:42;-16049.09;;;4.18;93.14
65157;BME280;52745;49.794;18.258;2023-02-17T11:15:15;-16051.03;;;4.25;92.20
65157;BME280;52745;49.794;18.258;2023-02-17T11:17:44;-16055.41;;;4.42;91.80
65157;BME280;52745;49.794;18.258;2023-02-17T11:22:44;-16059.22;;;4.56;91.29
65157;BME280;52745;49.794;18.258;2023-02-17T11:25:33;-16061.97;;;4.66;90.51
65157;BME280;52745;49.794;18.258;2023-02-17T11:28:09;-16064.16;;;4.74;90.74
65157;BME280;52745;49.794;18.258;2023-02-17T11:30:38;-16067.97;;;4.89;90.48
65157;BME280;52745;49.794;18.258;2023-02-17T11:33:20;-16074.00;;;5.11;90.11
65157;BME280;52745;49.794;18.258;2023-02-17T11:35:52;-16073.19;;;5.08;89.08
65157;BME280;52745;49.794;18.258;2023-02-17T11:38:24;-16074.81;;;5.14;89.41
65157;BME280;52745;49.794;18.258;2023-02-17T11:43:27;-16075.25;;;5.16;89.21
65157;BME280;52745;49.794;18.258;2023-02-17T11:59:57;-16074.81;;;5.14;90.19
65157;BME280;52745;49.794;18.258;2023-02-17T12:07:49;-16079.88;;;5.33;90.28
65157;BME280;52745;49.794;18.258;2023-02-17T12:29:10;-16083.72;;;5.48;89.24
65157;BME280;52745;49.794;18.258;2023-02-17T12:32:08;-16079.88;;;5.33;89.29
65157;BME280;52745;49.794;18.258;2023-02-17T12:34:58;-16073.72;;;5.10;89.66
65157;BME280;52745;49.794;18.258;2023-02-17T12:37:33;-16070.72;;;4.99;89.63
65157;BME280;52745;49.794;18.258;2023-02-17T12:40:15;-16069.34;;;4.94;90.13
65157;BME280;52745;49.794;18.258;2023-02-17T12:42:52;-16071.28;;;5.01;90.16
65157;BME280;52745;49.794;18.258;2023-02-17T12:45:26;-16075.50;;;5.17;90.02
65157;BME280;52745;49.794;18.258;2023-02-17T12:48:25;-16075.66;;;5.17;90.24
65157;BME280;52745;49.794;18.258;2023-02-17T12:51:05;-16079.06;;;5.30;90.17
65157;BME280;52745;49.794;18.258;2023-02-17T12:58:56;-16080.84;;;5.37;90.36
65157;BME280;52745;49.794;18.258;2023-02-17T13:01:26;-16080.97;;;5.37;90.94
65157;BME280;52745;49.794;18.258;2023-02-17T13:03:58;-16080.03;;;5.34;91.33
65157;BME280;52745;49.794;18.258;2023-02-17T13:06:41;-16079.06;;;5.30;91.65
65157;BME280;52745;49.794;18.258;2023-02-17T13:09:24;-16080.69;;;5.36;92.46
65157;BME280;52745;49.794;18.258;2023-02-17T13:11:52;-16084.66;;;5.51;92.24
65157;BME280;52745;49.794;18.258;2023-02-17T13:14:28;-16087.69;;;5.63;91.66
65157;BME280;52745;49.794;18.258;2023-02-17T13:17:03;-16086.59;;;5.58;92.33
65157;BME280;52745;49.794;18.258;2023-02-17T13:19:32;-16086.72;;;5.59;92.37
65157;BME280;52745;49.794;18.258;2023-02-17T13:22:01;-16087.41;;;5.62;92.79
65157;BME280;52745;49.794;18.258;2023-02-17T13:27:20;-16088.22;;;5.65;94.27
65157;BME280;52745;49.794;18.258;2023-02-17T13:33:03;-16092.59;;;5.81;94.69
65157;BME280;52745;49.794;18.258;2023-02-17T13:35:33;-16093.16;;;5.83;95.93
65157;BME280;52745;49.794;18.258;2023-02-17T13:38:01;-16091.50;;;5.77;96.74
65157;BME280;52745;49.794;18.258;2023-02-17T13:43:15;-16093.16;;;5.83;97.37
65157;BME280;52745;49.794;18.258;2023-02-17T13:45:56;-16096.16;;;5.94;97.41
65157;BME280;52745;49.794;18.258;2023-02-17T13:48:32;-16098.34;;;6.03;97.30
65157;BME280;52745;49.794;18.258;2023-02-17T13:51:06;-16096.84;;;5.97;98.10
65157;BME280;52745;49.794;18.258;2023-02-17T13:53:40;-16095.06;;;5.90;98.80
65157;BME280;52745;49.794;18.258;2023-02-17T13:56:10;-16091.38;;;5.76;100.00
65157;BME280;52745;49.794;18.258;2023-02-17T13:58:39;-16093.97;;;5.86;100.00
65157;BME280;52745;49.794;18.258;2023-02-17T14:01:13;-16093.69;;;5.85;100.00
65157;BME280;52745;49.794;18.258;2023-02-17T14:03:45;-16094.25;;;5.87;100.00
65157;BME280;52745;49.794;18.258;2023-02-17T14:06:35;-16095.75;;;5.93;100.00
65157;BME280;52745;49.794;18.258;2023-02-17T14:11:52;-16098.06;;;6.01;100.00
65157;BME280;52745;49.794;18.258;2023-02-17T14:14:21;-16097.13;;;5.98;100.00
65157;BME280;52745;49.794;18.258;2023-02-17T14:19:28;-16101.06;;;6.13;100.00
65157;BME280;52745;49.794;18.258;2023-02-17T14:22:24;-16100.81;;;6.12;100.00
65157;BME280;52745;49.794;18.258;2023-02-17T14:25:11;-16101.34;;;6.14;100.00
65157;BME280;52745;49.794;18.258;2023-02-17T14:27:46;-16101.50;;;6.14;100.00
65157;BME280;52745;49.794;18.258;2023-02-17T14:30:25;-16103.53;;;6.22;100.00
65157;BME280;52745;49.794;18.258;2023-02-17T14:35:35;-16105.72;;;6.30;99.95
65157;BME280;52745;49.794;18.258;2023-02-17T14:38:18;-16106.53;;;6.33;99.74
65157;BME280;52745;49.794;18.258;2023-02-17T14:40:46;-16108.88;;;6.42;99.22
65157;BME280;52745;49.794;18.258;2023-02-17T14:43:13;-16110.50;;;6.48;99.17
65157;BME280;52745;49.794;18.258;2023-02-17T14:45:40;-16108.72;;;6.41;98.86
65157;BME280;52745;49.794;18.258;2023-02-17T14:48:07;-16109.97;;;6.46;99.80
65157;BME280;52745;49.794;18.258;2023-02-17T14:50:34;-16110.50;;;6.48;99.30
65157;BME280;52745;49.794;18.258;2023-02-17T14:53:12;-16109.56;;;6.45;99.94
65157;BME280;52745;49.794;18.258;2023-02-17T14:55:49;-16111.31;;;6.51;100.00
65157;BME280;52745;49.794;18.258;2023-02-17T14:58:20;-16112.28;;;6.55;100.00